Time;durP1;ratioP1;P1;durP2;ratioP2;P2;SDS_P1;SDS_P2;PMS_P1;PMS_P2;Temp;Humidity;BMP_temperature;BMP_pressure;BME280_temperature;BME280_humidity;BME280_pressure;Samples;Min_cycle;Max_cycle;Signal;HPM_P1;HPM_P2
2022/07/06 00:02:23;;;;;;;;;;;15.40;99.90;;;;;;5089472;28;19924;-77
2022/07/06 00:04:48;;;;;;;;;;;15.40;99.90;;;;;;5089133;28;19924;-77
2022/07/06 00:07:14;;;;;;;;;;;15.30;99.90;;;;;;5089353;28;19932;-77
2022/07/06 00:09:40;;;;;;;;;;;15.30;99.90;;;;;;5088707;28;20314;-77
2022/07/06 00:12:06;;;;;;;;;;;15.30;99.90;;;;;;5089306;28;19971;-77
2022/07/06 00:14:32;;;;;;;;;;;15.20;99.90;;;;;;5089627;28;19932;-77
2022/07/06 00:16:57;;;;;;;;;;;15.30;99.90;;;;;;5089472;28;19931;-77
2022/07/06 00:19:23;;;;;;;;;;;15.30;99.90;;;;;;5089124;28;20015;-77
2022/07/06 00:21:48;;;;;;;;;;;15.20;99.90;;;;;;5089688;28;19924;-77
2022/07/06 00:24:14;;;;;;;;;;;15.20;99.90;;;;;;5089374;28;20069;-77
2022/07/06 00:26:39;;;;;;;;;;;15.20;99.90;;;;;;5071097;28;20011;-77
2022/07/06 00:29:05;;;;;;;;;;;15.20;99.90;;;;;;5089526;28;19935;-77
2022/07/06 00:31:30;;;;;;;;;;;15.20;99.90;;;;;;5089140;28;19924;-77
2022/07/06 00:33:56;;;;;;;;;;;15.20;99.90;;;;;;5069961;28;19970;-76
2022/07/06 00:36:21;;;;;;;;;;;15.20;99.90;;;;;;5093571;28;19924;-76
2022/07/06 00:38:47;;;;;;;;;;;15.20;99.90;;;;;;5093427;28;19925;-77
2022/07/06 00:41:13;;;;;;;;;;;15.10;99.90;;;;;;5093315;28;19924;-77
2022/07/06 00:43:52;;;;;;;;;;;15.10;99.90;;;;;;5092733;28;19939;-77
2022/07/06 00:46:17;;;;;;;;;;;15.10;99.90;;;;;;5093479;28;20435;-77
2022/07/06 00:48:43;;;;;;;;;;;15.20;99.90;;;;;;5092985;28;20018;-77
2022/07/06 00:51:09;;;;;;;;;;;15.20;99.90;;;;;;5075224;28;19924;-77
2022/07/06 00:53:35;;;;;;;;;;;15.20;99.90;;;;;;5092528;28;20370;-76
2022/07/06 00:56:01;;;;;;;;;;;15.10;99.90;;;;;;5093292;28;19931;-77
2022/07/06 00:58:26;;;;;;;;;;;15.20;99.90;;;;;;5079968;28;19924;-77
2022/07/06 01:00:52;;;;;;;;;;;15.10;99.90;;;;;;5092993;28;19924;-77
2022/07/06 01:03:18;;;;;;;;;;;15.10;99.90;;;;;;5092779;28;19928;-77
2022/07/06 01:05:44;;;;;;;;;;;15.10;99.90;;;;;;5092821;28;19966;-76
2022/07/06 01:08:09;;;;;;;;;;;15.10;99.90;;;;;;5092598;28;19928;-77
2022/07/06 01:10:35;;;;;;;;;;;15.10;99.90;;;;;;5092766;28;19924;-77
2022/07/06 01:13:00;;;;;;;;;;;15.10;99.90;;;;;;5057731;28;19925;-77
2022/07/06 01:15:26;;;;;;;;;;;15.10;99.90;;;;;;5092767;28;19971;-76
2022/07/06 01:17:52;;;;;;;;;;;15.00;99.90;;;;;;5092254;28;19931;-77
2022/07/06 01:20:22;;;;;;;;;;;15.00;99.90;;;;;;5092461;28;20019;-77
2022/07/06 01:22:48;;;;;;;;;;;15.00;99.90;;;;;;5092026;28;19998;-77
2022/07/06 01:25:14;;;;;;;;;;;15.00;99.90;;;;;;5092759;28;20007;-76
2022/07/06 01:27:40;;;;;;;;;;;15.10;99.90;;;;;;5073245;28;20038;-77
2022/07/06 01:30:07;;;;;;;;;;;15.00;99.90;;;;;;5092378;28;20777;-77
2022/07/06 01:32:33;;;;;;;;;;;15.00;99.90;;;;;;5092111;28;20014;-77
2022/07/06 01:34:59;;;;;;;;;;;15.10;99.90;;;;;;5092342;28;20015;-76
2022/07/06 01:37:24;;;;;;;;;;;15.10;99.90;;;;;;5091797;28;19939;-77
2022/07/06 01:39:50;;;;;;;;;;;15.10;99.90;;;;;;5092224;28;20364;-77
2022/07/06 01:42:17;;;;;;;;;;;15.10;99.90;;;;;;5092103;28;19934;-76
2022/07/06 01:44:43;;;;;;;;;;;15.10;99.90;;;;;;5092041;28;19966;-76
2022/07/06 01:47:08;;;;;;;;;;;15.10;99.90;;;;;;5090427;28;19963;-77
2022/07/06 01:49:34;;;;;;;;;;;15.10;99.90;;;;;;5091811;28;19924;-76
2022/07/06 01:51:59;;;;;;;;;;;15.10;99.90;;;;;;5092044;28;19928;-76
2022/07/06 01:54:25;;;;;;;;;;;15.10;99.90;;;;;;5073234;28;19973;-76
2022/07/06 01:56:50;;;;;;;;;;;15.10;99.90;;;;;;5091888;28;19986;-76
2022/07/06 01:59:16;;;;;;;;;;;15.10;99.90;;;;;;5091744;28;19928;-76
2022/07/06 02:01:41;;;;;;;;;;;15.10;99.90;;;;;;5091809;28;19981;-76
2022/07/06 02:04:07;;;;;;;;;;;15.10;99.90;;;;;;5091293;28;19970;-77
2022/07/06 02:06:32;;;;;;;;;;;15.00;99.90;;;;;;5091186;28;19928;-76
2022/07/06 02:08:58;;;;;;;;;;;15.10;99.90;;;;;;5091500;28;19928;-76
2022/07/06 02:11:23;;;;;;;;;;;15.10;99.90;;;;;;5091389;28;20301;-76
2022/07/06 02:13:49;;;;;;;;;;;15.00;99.90;;;;;;5090884;28;20007;-76
2022/07/06 02:16:14;;;;;;;;;;;15.00;99.90;;;;;;5090807;28;19932;-76
2022/07/06 02:18:40;;;;;;;;;;;15.00;99.90;;;;;;5091513;28;19971;-77
2022/07/06 02:21:05;;;;;;;;;;;15.00;99.90;;;;;;5091101;28;20025;-77
2022/07/06 02:23:31;;;;;;;;;;;14.90;99.90;;;;;;5091472;28;20390;-76
2022/07/06 02:25:56;;;;;;;;;;;14.90;99.90;;;;;;5090891;28;19924;-76
2022/07/06 02:28:22;;;;;;;;;;;14.90;99.90;;;;;;5091108;28;20400;-76
2022/07/06 02:30:47;;;;;;;;;;;14.80;99.90;;;;;;5091129;28;19931;-77
2022/07/06 02:33:13;;;;;;;;;;;14.80;99.90;;;;;;5091191;28;20386;-77
2022/07/06 02:35:42;;;;;;;;;;;14.70;99.90;;;;;;5091146;28;20382;-77
2022/07/06 02:38:07;;;;;;;;;;;14.70;99.90;;;;;;5091019;28;19997;-76
2022/07/06 02:40:33;;;;;;;;;;;14.60;99.90;;;;;;5090604;28;19924;-77
2022/07/06 02:42:58;;;;;;;;;;;14.60;99.90;;;;;;5091060;28;20407;-76
2022/07/06 02:45:24;;;;;;;;;;;14.50;99.90;;;;;;5081054;28;19976;-76
2022/07/06 02:47:50;;;;;;;;;;;14.50;99.90;;;;;;5084057;28;19928;-76
2022/07/06 02:50:16;;;;;;;;;;;14.40;99.90;;;;;;5089188;28;19928;-76
2022/07/06 02:52:42;;;;;;;;;;;14.40;99.90;;;;;;5087353;28;19929;-76
2022/07/06 02:55:07;;;;;;;;;;;14.30;99.90;;;;;;5080948;28;20037;-77
2022/07/06 02:57:33;;;;;;;;;;;14.30;99.90;;;;;;5087045;28;20009;-76
2022/07/06 02:59:58;;;;;;;;;;;14.30;99.90;;;;;;5080780;28;19924;-76
2022/07/06 03:02:24;;;;;;;;;;;14.20;99.90;;;;;;5077386;28;19924;-77
2022/07/06 03:04:49;;;;;;;;;;;14.10;99.90;;;;;;5090045;28;19924;-76
2022/07/06 03:07:15;;;;;;;;;;;14.10;99.90;;;;;;5077705;28;19924;-76
2022/07/06 03:09:40;;;;;;;;;;;14.10;99.90;;;;;;5089716;28;19924;-77
2022/07/06 03:12:06;;;;;;;;;;;14.00;99.90;;;;;;5090321;28;19924;-76
2022/07/06 03:14:32;;;;;;;;;;;14.00;99.90;;;;;;5090030;28;19977;-76
2022/07/06 03:16:57;;;;;;;;;;;13.90;99.90;;;;;;5090264;28;19986;-76
2022/07/06 03:19:23;;;;;;;;;;;13.90;99.90;;;;;;5077583;28;19970;-76
2022/07/06 03:21:48;;;;;;;;;;;13.80;99.90;;;;;;5089120;28;19974;-76
2022/07/06 03:24:14;;;;;;;;;;;13.80;99.90;;;;;;5089938;28;20408;-76
2022/07/06 03:26:39;;;;;;;;;;;13.80;99.90;;;;;;5089606;28;20406;-76
2022/07/06 03:29:05;;;;;;;;;;;13.80;99.90;;;;;;5090114;28;20051;-77
2022/07/06 03:31:30;;;;;;;;;;;13.70;99.90;;;;;;5089969;28;19955;-77
2022/07/06 03:33:56;;;;;;;;;;;13.70;99.90;;;;;;5090173;28;19932;-76
2022/07/06 03:36:22;;;;;;;;;;;13.70;99.90;;;;;;5090000;28;20401;-76
2022/07/06 03:38:47;;;;;;;;;;;13.60;99.90;;;;;;5089914;28;19924;-76
2022/07/06 03:41:13;;;;;;;;;;;13.60;99.90;;;;;;5089223;28;19924;-76
2022/07/06 03:43:38;;;;;;;;;;;13.50;99.90;;;;;;5089360;28;19925;-76
2022/07/06 03:46:04;;;;;;;;;;;13.50;99.90;;;;;;5087713;28;20070;-75
2022/07/06 03:48:29;;;;;;;;;;;13.50;99.90;;;;;;5089410;28;19924;-76
2022/07/06 03:50:55;;;;;;;;;;;13.50;99.90;;;;;;5089849;28;19928;-76
2022/07/06 03:53:20;;;;;;;;;;;13.50;99.90;;;;;;5089975;28;20321;-76
2022/07/06 03:58:31;;;;;;;;;;;13.50;99.90;;;;;;5089612;28;19924;-76
2022/07/06 04:00:56;;;;;;;;;;;13.60;99.90;;;;;;5089878;28;20378;-76
2022/07/06 04:03:22;;;;;;;;;;;13.60;99.90;;;;;;5089694;28;19925;-76
2022/07/06 04:05:47;;;;;;;;;;;13.60;99.90;;;;;;5089637;28;19934;-76
2022/07/06 04:08:13;;;;;;;;;;;13.60;99.90;;;;;;5089679;28;19942;-76
2022/07/06 04:10:38;;;;;;;;;;;13.70;99.90;;;;;;5093318;28;19931;-76
2022/07/06 04:13:04;;;;;;;;;;;13.60;99.90;;;;;;5094089;28;19954;-76
2022/07/06 04:15:29;;;;;;;;;;;13.60;99.90;;;;;;5093833;28;19971;-76
2022/07/06 04:17:55;;;;;;;;;;;13.50;99.90;;;;;;5075532;28;19924;-76
2022/07/06 04:20:21;;;;;;;;;;;13.60;99.90;;;;;;5093533;28;19931;-76
2022/07/06 04:22:47;;;;;;;;;;;13.50;99.90;;;;;;5093639;28;19924;-76
2022/07/06 04:25:13;;;;;;;;;;;13.50;99.90;;;;;;5093543;28;19924;-76
2022/07/06 04:27:38;;;;;;;;;;;13.60;99.90;;;;;;5093277;28;19924;-76
2022/07/06 04:30:04;;;;;;;;;;;13.60;99.90;;;;;;5093035;28;19981;-76
2022/07/06 04:32:30;;;;;;;;;;;13.70;99.90;;;;;;5093149;28;19976;-76
2022/07/06 04:34:55;;;;;;;;;;;13.70;99.90;;;;;;5092974;28;20015;-76
2022/07/06 04:37:21;;;;;;;;;;;13.80;99.90;;;;;;5093396;28;19932;-76
2022/07/06 04:39:46;;;;;;;;;;;13.80;99.90;;;;;;5091164;28;19939;-76
2022/07/06 04:42:12;;;;;;;;;;;13.90;99.90;;;;;;5082593;28;19935;-77
2022/07/06 04:44:37;;;;;;;;;;;13.90;99.90;;;;;;5092913;28;20564;-76
2022/07/06 04:47:03;;;;;;;;;;;13.90;99.90;;;;;;5090366;28;19931;-77
2022/07/06 04:49:28;;;;;;;;;;;14.00;99.90;;;;;;5093028;28;19924;-76
2022/07/06 04:51:54;;;;;;;;;;;14.00;99.90;;;;;;5092921;28;19928;-76
2022/07/06 04:54:19;;;;;;;;;;;14.00;99.90;;;;;;5093245;28;19924;-76
2022/07/06 04:56:46;;;;;;;;;;;14.00;99.90;;;;;;5093189;28;19924;-76
2022/07/06 04:59:12;;;;;;;;;;;14.10;99.90;;;;;;5092901;28;19982;-76
2022/07/06 05:01:37;;;;;;;;;;;14.10;99.90;;;;;;5093157;28;19952;-76
2022/07/06 05:04:03;;;;;;;;;;;14.10;99.90;;;;;;5092227;28;19924;-76
2022/07/06 05:06:29;;;;;;;;;;;14.10;99.90;;;;;;5074769;28;19924;-76
2022/07/06 05:08:54;;;;;;;;;;;14.20;99.90;;;;;;5092429;28;19924;-76
2022/07/06 05:11:20;;;;;;;;;;;14.20;99.90;;;;;;5093160;28;19924;-76
2022/07/06 05:13:45;;;;;;;;;;;14.20;99.90;;;;;;5092571;28;19924;-76
2022/07/06 05:16:11;;;;;;;;;;;14.20;99.90;;;;;;5092718;28;19924;-77
2022/07/06 05:18:36;;;;;;;;;;;14.20;99.90;;;;;;5091705;28;20362;-76
2022/07/06 05:21:02;;;;;;;;;;;14.30;99.90;;;;;;5092633;28;20301;-76
2022/07/06 05:23:28;;;;;;;;;;;14.30;99.90;;;;;;5092889;28;19924;-76
2022/07/06 05:25:53;;;;;;;;;;;14.30;99.90;;;;;;5074170;28;19924;-76
2022/07/06 05:28:19;;;;;;;;;;;14.40;99.90;;;;;;5092400;28;19924;-77
2022/07/06 05:30:44;;;;;;;;;;;14.40;99.90;;;;;;5092074;28;19931;-76
2022/07/06 05:33:10;;;;;;;;;;;14.50;99.90;;;;;;5092465;28;20283;-76
2022/07/06 05:35:35;;;;;;;;;;;14.60;99.90;;;;;;5059476;28;19924;-76
2022/07/06 05:38:01;;;;;;;;;;;14.70;99.90;;;;;;5080525;28;20054;-76
2022/07/06 05:40:26;;;;;;;;;;;14.70;99.90;;;;;;5091897;28;19924;-76
2022/07/06 05:42:51;;;;;;;;;;;14.70;99.90;;;;;;5092040;28;20400;-77
2022/07/06 05:45:17;;;;;;;;;;;14.80;99.90;;;;;;5091584;28;19924;-76
2022/07/06 05:50:26;;;;;;;;;;;15.00;99.90;;;;;;5091114;28;20297;-76
2022/07/06 05:53:00;;;;;;;;;;;15.10;99.90;;;;;;5091343;28;19924;-76
2022/07/06 05:55:26;;;;;;;;;;;15.10;99.90;;;;;;5091694;28;20615;-77
2022/07/06 05:57:53;;;;;;;;;;;15.10;99.90;;;;;;5091909;28;19924;-76
2022/07/06 06:00:19;;;;;;;;;;;15.20;99.90;;;;;;5091815;28;19924;-76
2022/07/06 06:02:45;;;;;;;;;;;15.30;99.90;;;;;;5091970;28;19975;-76
2022/07/06 06:05:11;;;;;;;;;;;15.30;99.90;;;;;;5091562;28;20028;-76
2022/07/06 06:07:37;;;;;;;;;;;15.30;99.90;;;;;;5090332;28;19924;-76
2022/07/06 06:10:03;;;;;;;;;;;15.30;99.90;;;;;;5091722;28;20302;-76
2022/07/06 06:12:29;;;;;;;;;;;15.40;99.90;;;;;;5091367;28;20306;-76
2022/07/06 06:14:54;;;;;;;;;;;15.40;99.90;;;;;;5091010;28;19931;-76
2022/07/06 06:17:20;;;;;;;;;;;15.60;99.90;;;;;;5090807;28;19931;-77
2022/07/06 06:19:45;;;;;;;;;;;15.70;99.90;;;;;;5090907;28;19924;-76
2022/07/06 06:22:11;;;;;;;;;;;15.80;99.90;;;;;;5091088;28;20500;-76
2022/07/06 06:24:36;;;;;;;;;;;15.70;99.90;;;;;;5090647;28;19950;-76
2022/07/06 06:27:02;;;;;;;;;;;15.70;99.90;;;;;;5091098;28;19977;-76
2022/07/06 06:29:27;;;;;;;;;;;15.60;99.90;;;;;;5090914;28;19924;-77
2022/07/06 06:31:53;;;;;;;;;;;15.50;99.90;;;;;;5090187;28;20294;-77
2022/07/06 06:34:18;;;;;;;;;;;15.30;99.90;;;;;;5090743;28;19924;-76
2022/07/06 06:36:44;;;;;;;;;;;15.10;99.90;;;;;;5056143;28;19975;-77
2022/07/06 06:39:09;;;;;;;;;;;14.90;99.90;;;;;;5090888;28;19935;-77
2022/07/06 06:41:35;;;;;;;;;;;14.90;99.90;;;;;;5091026;28;19972;-77
2022/07/06 06:44:00;;;;;;;;;;;14.80;99.90;;;;;;5090527;28;20442;-77
2022/07/06 06:46:26;;;;;;;;;;;14.80;99.90;;;;;;5090065;28;20019;-77
2022/07/06 06:48:51;;;;;;;;;;;14.80;99.90;;;;;;5090932;28;20538;-77
2022/07/06 06:51:17;;;;;;;;;;;14.80;99.90;;;;;;5090526;28;19975;-77
2022/07/06 06:53:43;;;;;;;;;;;14.80;99.90;;;;;;5090290;28;19932;-77
2022/07/06 06:56:08;;;;;;;;;;;14.90;99.90;;;;;;5090654;28;20821;-77
2022/07/06 06:58:34;;;;;;;;;;;15.00;99.90;;;;;;5090632;28;19931;-77
2022/07/06 07:00:59;;;;;;;;;;;15.10;99.90;;;;;;5090216;28;19932;-77
2022/07/06 07:03:25;;;;;;;;;;;15.20;99.90;;;;;;5090882;28;20804;-77
2022/07/06 07:05:50;;;;;;;;;;;15.20;99.90;;;;;;5090083;28;20667;-78
2022/07/06 07:08:16;;;;;;;;;;;15.20;99.90;;;;;;5090553;28;19924;-77
2022/07/06 07:10:41;;;;;;;;;;;15.30;99.90;;;;;;5090309;28;19978;-77
2022/07/06 07:13:07;;;;;;;;;;;15.30;99.90;;;;;;5090597;28;20565;-77
2022/07/06 07:15:32;;;;;;;;;;;15.40;99.90;;;;;;5089880;28;19924;-77
2022/07/06 07:17:58;;;;;;;;;;;15.50;99.90;;;;;;5080884;28;19931;-77
2022/07/06 07:20:25;;;;;;;;;;;15.50;99.90;;;;;;5086494;28;19924;-77
2022/07/06 07:22:50;;;;;;;;;;;15.50;99.90;;;;;;5090321;28;19924;-77
2022/07/06 07:25:16;;;;;;;;;;;15.50;99.90;;;;;;5089942;28;20392;-77
2022/07/06 07:27:41;;;;;;;;;;;15.60;99.90;;;;;;5071783;28;19930;-77
2022/07/06 07:30:07;;;;;;;;;;;15.60;99.90;;;;;;5089499;28;19928;-77
2022/07/06 07:32:33;;;;;;;;;;;15.80;99.90;;;;;;5070371;28;19970;-77
2022/07/06 07:34:58;;;;;;;;;;;15.90;99.90;;;;;;5090104;28;19950;-77
2022/07/06 07:37:24;;;;;;;;;;;16.00;99.90;;;;;;5089994;28;19924;-77
2022/07/06 07:39:49;;;;;;;;;;;16.20;99.90;;;;;;5089948;28;19927;-77
2022/07/06 07:42:15;;;;;;;;;;;16.40;99.90;;;;;;5089914;28;20510;-77
2022/07/06 07:44:41;;;;;;;;;;;16.70;99.90;;;;;;5087877;28;19924;-77
2022/07/06 07:47:06;;;;;;;;;;;16.90;99.90;;;;;;5089834;28;19924;-77
2022/07/06 07:49:32;;;;;;;;;;;16.90;99.90;;;;;;5090007;28;19924;-77
2022/07/06 07:51:57;;;;;;;;;;;16.80;99.90;;;;;;5089531;28;19977;-77
2022/07/06 07:54:23;;;;;;;;;;;16.70;99.90;;;;;;5089149;28;19924;-77
2022/07/06 07:56:48;;;;;;;;;;;16.70;99.90;;;;;;5089274;28;19935;-77
2022/07/06 07:59:14;;;;;;;;;;;16.70;99.90;;;;;;5090030;28;19935;-77
2022/07/06 08:01:39;;;;;;;;;;;16.70;99.90;;;;;;5089256;28;19928;-76
2022/07/06 08:04:05;;;;;;;;;;;16.70;99.90;;;;;;5089615;28;20433;-76
2022/07/06 08:06:31;;;;;;;;;;;16.80;99.90;;;;;;5090112;28;20011;-76
2022/07/06 08:08:56;;;;;;;;;;;17.00;99.90;;;;;;5089192;28;20413;-77
2022/07/06 08:11:22;;;;;;;;;;;17.20;99.90;;;;;;5089678;28;19985;-77
2022/07/06 08:13:47;;;;;;;;;;;17.30;99.90;;;;;;5089291;28;20011;-77
2022/07/06 08:16:13;;;;;;;;;;;17.50;99.90;;;;;;5089789;28;19974;-77
2022/07/06 08:18:39;;;;;;;;;;;17.60;99.90;;;;;;5071315;28;19929;-76
2022/07/06 08:21:05;;;;;;;;;;;17.50;99.90;;;;;;5089654;28;19949;-77
2022/07/06 08:23:31;;;;;;;;;;;17.50;99.90;;;;;;5089082;28;19981;-77
2022/07/06 08:25:56;;;;;;;;;;;17.50;99.90;;;;;;5089428;28;19924;-77
2022/07/06 08:28:22;;;;;;;;;;;17.60;99.90;;;;;;5076368;28;19925;-77
2022/07/06 08:30:47;;;;;;;;;;;17.80;99.90;;;;;;5080429;28;20027;-77
2022/07/06 08:33:13;;;;;;;;;;;17.90;99.90;;;;;;5084852;28;20382;-77
2022/07/06 08:35:39;;;;;;;;;;;18.00;99.90;;;;;;5080543;28;19928;-77
2022/07/06 08:38:04;;;;;;;;;;;18.10;99.90;;;;;;5066810;28;19969;-77
2022/07/06 08:40:33;;;;;;;;;;;18.10;99.90;;;;;;5089345;28;19924;-77
2022/07/06 08:42:59;;;;;;;;;;;18.20;99.90;;;;;;5088983;28;19956;-77
2022/07/06 08:45:26;;;;;;;;;;;18.20;99.90;;;;;;5089326;28;20414;-76
2022/07/06 08:47:53;;;;;;;;;;;18.10;99.90;;;;;;5088909;28;20016;-77
2022/07/06 08:50:20;;;;;;;;;;;18.20;99.90;;;;;;5089404;28;19931;-77
2022/07/06 08:52:47;;;;;;;;;;;18.10;99.90;;;;;;5089264;28;20325;-77
2022/07/06 08:55:13;;;;;;;;;;;18.10;99.90;;;;;;5090680;28;19935;-77
2022/07/06 08:57:41;;;;;;;;;;;18.20;99.90;;;;;;5083312;28;19925;-77
2022/07/06 09:00:07;;;;;;;;;;;18.20;98.60;;;;;;5072854;28;20378;-77
2022/07/06 09:02:34;;;;;;;;;;;18.30;98.50;;;;;;5077550;28;19924;-77
2022/07/06 09:05:01;;;;;;;;;;;18.40;98.80;;;;;;5093125;28;19924;-77
2022/07/06 09:07:28;;;;;;;;;;;18.50;98.80;;;;;;5078791;28;19928;-77
2022/07/06 09:09:54;;;;;;;;;;;18.60;98.00;;;;;;5092550;28;19924;-77
2022/07/06 09:12:20;;;;;;;;;;;18.60;98.30;;;;;;5092708;28;19924;-77
2022/07/06 09:14:46;;;;;;;;;;;18.70;97.60;;;;;;5091947;28;20059;-77
2022/07/06 09:17:11;;;;;;;;;;;18.70;96.50;;;;;;5092141;28;20002;-77
2022/07/06 09:19:37;;;;;;;;;;;18.80;96.70;;;;;;5092545;28;20040;-77
2022/07/06 09:22:03;;;;;;;;;;;18.90;97.20;;;;;;5092313;28;19963;-77
2022/07/06 09:24:29;;;;;;;;;;;19.00;96.50;;;;;;5074315;28;20453;-77
2022/07/06 09:26:55;;;;;;;;;;;19.10;96.60;;;;;;5091944;28;19924;-76
2022/07/06 09:29:28;;;;;;;;;;;19.20;96.70;;;;;;5092675;28;19924;-76
2022/07/06 09:32:00;;;;;;;;;;;19.20;96.10;;;;;;5085103;28;19934;-77
2022/07/06 09:34:40;;;;;;;;;;;19.10;96.20;;;;;;5092117;28;19924;-77
2022/07/06 09:37:06;;;;;;;;;;;19.20;96.60;;;;;;5092613;28;19998;-77
2022/07/06 09:39:31;;;;;;;;;;;19.40;95.80;;;;;;5092315;28;19936;-77
2022/07/06 09:41:58;;;;;;;;;;;19.50;95.90;;;;;;5092196;28;19924;-77
2022/07/06 09:44:29;;;;;;;;;;;19.70;95.40;;;;;;5091887;28;19932;-77
2022/07/06 09:46:58;;;;;;;;;;;19.90;94.20;;;;;;5091923;28;19928;-77
2022/07/06 09:49:24;;;;;;;;;;;20.00;93.70;;;;;;5092252;28;20458;-76
2022/07/06 09:51:51;;;;;;;;;;;20.20;94.10;;;;;;5091529;28;19928;-77
2022/07/06 09:54:17;;;;;;;;;;;20.40;93.60;;;;;;5073939;28;19979;-77
2022/07/06 09:56:44;;;;;;;;;;;20.60;93.30;;;;;;5091738;28;19959;-77
2022/07/06 09:59:10;;;;;;;;;;;20.70;92.30;;;;;;5092018;28;19985;-77
2022/07/06 10:01:36;;;;;;;;;;;21.00;93.10;;;;;;5091290;28;19969;-77
2022/07/06 10:04:02;;;;;;;;;;;21.20;92.20;;;;;;5091864;28;19931;-76
2022/07/06 10:06:27;;;;;;;;;;;21.20;91.30;;;;;;5090501;28;19924;-76
2022/07/06 10:08:54;;;;;;;;;;;21.30;92.40;;;;;;5071675;28;19967;-77
2022/07/06 10:11:20;;;;;;;;;;;21.50;92.60;;;;;;5085066;28;19978;-77
2022/07/06 10:13:47;;;;;;;;;;;21.60;92.30;;;;;;5091490;28;19924;-77
2022/07/06 10:16:14;;;;;;;;;;;21.80;92.00;;;;;;5090769;28;19924;-75
2022/07/06 10:18:40;;;;;;;;;;;22.00;92.10;;;;;;5091771;28;20015;-75
2022/07/06 10:21:06;;;;;;;;;;;22.00;91.30;;;;;;5091077;28;19934;-75
2022/07/06 10:23:33;;;;;;;;;;;22.00;90.80;;;;;;5091811;28;19928;-75
2022/07/06 10:25:59;;;;;;;;;;;22.00;91.50;;;;;;5090547;28;19924;-74
2022/07/06 10:28:26;;;;;;;;;;;21.90;91.80;;;;;;5084710;28;20184;-75
2022/07/06 10:30:52;;;;;;;;;;;21.80;91.90;;;;;;5085634;28;19924;-75
2022/07/06 10:33:17;;;;;;;;;;;21.90;91.60;;;;;;5091286;28;19977;-75
2022/07/06 10:35:44;;;;;;;;;;;22.10;92.70;;;;;;5090966;28;19928;-75
2022/07/06 10:38:10;;;;;;;;;;;22.20;91.60;;;;;;5090996;28;19940;-75
2022/07/06 10:43:22;;;;;;;;;;;21.50;91.00;;;;;;5091083;28;19924;-75
2022/07/06 10:45:47;;;;;;;;;;;21.40;91.70;;;;;;5090951;28;20388;-75
2022/07/06 10:48:13;;;;;;;;;;;21.40;91.70;;;;;;5090838;28;19928;-75
2022/07/06 10:50:39;;;;;;;;;;;21.70;91.40;;;;;;5090503;28;19924;-75
2022/07/06 10:53:13;;;;;;;1.70;0.20;;;22.00;91.40;;;;;;5090354;28;20456;-75
2022/07/06 10:55:42;;;;;;;1.45;0.28;;;22.40;91.50;;;;;;5084754;28;20041;-75
2022/07/06 10:58:08;;;;;;;1.67;0.20;;;22.90;91.40;;;;;;5082596;28;20144;-74
2022/07/06 11:00:53;;;;;;;;;;;23.30;90.40;;;;;;5090426;28;20075;-74
2022/07/06 11:03:29;;;;;;;;;;;23.10;87.60;;;;;;5090589;28;19920;-75
2022/07/06 11:05:59;;;;;;;;;;;22.80;86.00;;;;;;5090700;28;19920;-75
2022/07/06 11:08:43;;;;;;;;;;;22.40;86.10;;;;;;5090401;28;20400;-74
2022/07/06 11:11:12;;;;;;;;;;;22.40;87.90;;;;;;5090556;28;19920;-75
2022/07/06 11:13:55;;;;;;;;;;;22.20;84.80;;;;;;5090120;28;19927;-75
2022/07/06 11:16:22;;;;;;;;;;;21.90;85.70;;;;;;5090381;28;20346;-75
2022/07/06 11:18:49;;;;;;;;;;;21.90;86.00;;;;;;5090212;28;19956;-74
2022/07/06 11:21:18;;;;;;;;;;;21.80;86.60;;;;;;5088566;28;19924;-75
2022/07/06 11:23:48;;;;;;;;;;;21.90;86.90;;;;;;5078901;28;19924;-74
2022/07/06 11:26:14;;;;;;;;;;;22.20;87.80;;;;;;5089904;28;19920;-75
2022/07/06 11:28:39;;;;;;;;;;;22.40;85.80;;;;;;5090106;28;20286;-75
2022/07/06 11:31:05;;;;;;;;;;;22.50;84.80;;;;;;5089564;28;19924;-75
2022/07/06 11:33:31;;;;;;;;;;;22.50;84.60;;;;;;5089995;28;19965;-75
2022/07/06 11:36:15;;;;;;;;;;;22.30;84.10;;;;;;5089923;28;20000;-74
2022/07/06 11:38:41;;;;;;;;;;;22.00;84.00;;;;;;5090151;28;20023;-75
2022/07/06 11:41:07;;;;;;;;;;;22.00;83.90;;;;;;5070385;28;20022;-75
2022/07/06 11:43:32;;;;;;;;;;;22.30;83.70;;;;;;5089916;28;20377;-75
2022/07/06 11:45:58;;;;;;;;;;;22.70;84.40;;;;;;5089296;28;20350;-75
2022/07/06 11:48:23;;;;;;;;;;;22.90;83.00;;;;;;5071138;28;19920;-75
2022/07/06 11:51:03;;;;;;;2.08;0.28;;;23.00;80.90;;;;;;5088243;28;19930;-75
2022/07/06 11:53:29;;;;;;;2.28;0.38;;;23.40;79.80;;;;;;5089486;28;20054;-74
2022/07/06 11:56:01;;;;;;;2.28;0.30;;;23.70;79.90;;;;;;5088723;28;20557;-75
2022/07/06 11:58:27;;;;;;;1.90;0.20;;;24.10;80.10;;;;;;5087872;28;20402;-75
2022/07/06 12:01:06;;;;;;;3.92;0.50;;;24.40;79.30;;;;;;5089221;28;20520;-75
2022/07/06 12:03:32;;;;;;;1.80;0.20;;;24.60;78.50;;;;;;5088849;28;20032;-75
2022/07/06 12:05:58;;;;;;;1.60;0.20;;;24.60;78.20;;;;;;5078229;28;20825;-75
2022/07/06 12:08:24;;;;;;;1.77;0.20;;;24.60;77.50;;;;;;5083955;28;20410;-75
2022/07/06 12:10:50;;;;;;;1.77;0.30;;;24.50;77.50;;;;;;5087673;28;20437;-74
2022/07/06 12:13:16;;;;;;;3.20;0.30;;;24.30;72.60;;;;;;5069684;28;20406;-74
2022/07/06 12:15:41;;;;;;;1.60;0.40;;;24.00;70.90;;;;;;5087458;28;20477;-74
2022/07/06 12:18:07;;;;;;;1.57;0.23;;;23.60;73.70;;;;;;5087626;28;20413;-75
2022/07/06 12:20:33;;;;;;;1.70;0.20;;;23.60;75.20;;;;;;5087830;28;20409;-74
2022/07/06 12:23:05;;;;;;;1.50;0.20;;;23.90;75.00;;;;;;5087153;28;20401;-75
2022/07/06 12:25:35;;;;;;;2.43;0.40;;;23.90;74.10;;;;;;5069937;28;20740;-75
2022/07/06 12:28:02;;;;;;;2.25;0.15;;;23.90;74.60;;;;;;5087314;28;20422;-75
2022/07/06 12:30:28;;;;;;;1.08;0.10;;;23.70;74.20;;;;;;5089439;28;20486;-74
2022/07/06 12:33:13;;;;;;;1.45;0.20;;;23.70;72.90;;;;;;5077904;28;20401;-75
2022/07/06 12:35:39;;;;;;;3.70;0.30;;;23.60;73.40;;;;;;5073031;28;20417;-75
2022/07/06 12:38:05;;;;;;;2.35;0.30;;;23.40;73.70;;;;;;5091549;28;20484;-75
2022/07/06 12:40:31;;;;;;;1.05;0.20;;;23.60;75.40;;;;;;5091400;28;20565;-75
2022/07/06 12:42:57;;;;;;;2.20;0.20;;;23.70;73.30;;;;;;5091723;28;20402;-75
2022/07/06 12:45:27;;;;;;;1.03;0.20;;;23.60;72.90;;;;;;5091560;28;20398;-74
2022/07/06 12:48:01;;;;;;;1.33;0.17;;;23.80;73.50;;;;;;5078899;28;20404;-74
2022/07/06 12:50:38;;;;;;;2.15;0.30;;;24.20;75.10;;;;;;5091451;28;20463;-75
2022/07/06 12:53:06;;;;;;;1.98;0.30;;;24.50;72.80;;;;;;5091219;28;20451;-75
2022/07/06 12:55:31;;;;;;;2.80;0.20;;;24.60;72.80;;;;;;5090585;28;20408;-75
2022/07/06 12:57:58;;;;;;;2.38;0.28;;;24.50;71.60;;;;;;5091406;28;20760;-74
2022/07/06 13:00:24;;;;;;;2.65;0.20;;;24.30;70.60;;;;;;5091195;28;20909;-75
2022/07/06 13:02:56;;;;;;;3.45;0.30;;;24.00;71.60;;;;;;5090789;28;20402;-75
2022/07/06 13:05:27;;;;;;;1.48;0.30;;;23.70;71.30;;;;;;5090981;28;20820;-75
2022/07/06 13:07:55;;;;;;;2.53;0.20;;;23.40;70.80;;;;;;5091045;28;20408;-74
2022/07/06 13:10:21;;;;;;;2.72;0.20;;;23.10;71.90;;;;;;5091090;28;20468;-74
2022/07/06 13:12:47;;;;;;;2.00;0.20;;;22.80;71.40;;;;;;5091218;28;20965;-74
2022/07/06 13:15:13;;;;;;;1.52;0.13;;;22.60;72.30;;;;;;5091090;28;20394;-74
2022/07/06 13:17:40;;;;;;;2.15;0.20;;;22.40;72.80;;;;;;5090177;28;20409;-74
2022/07/06 13:20:08;;;;;;;3.53;0.30;;;22.30;73.90;;;;;;5090891;28;20933;-75
2022/07/06 13:22:33;;;;;;;3.08;0.40;;;22.10;74.10;;;;;;5078517;28;20453;-75
2022/07/06 13:24:59;;;;;;;1.10;0.13;;;22.00;74.60;;;;;;5089840;28;20401;-74
2022/07/06 13:27:25;;;;;;;0.60;0.13;;;21.90;74.50;;;;;;5090758;28;20394;-74
2022/07/06 13:29:51;;;;;;;1.00;0.20;;;21.80;74.30;;;;;;5072304;28;20433;-74
2022/07/06 13:32:16;;;;;;;2.93;0.30;;;21.70;73.70;;;;;;5090826;28;20398;-75
2022/07/06 13:34:42;;;;;;;2.63;0.30;;;21.50;74.70;;;;;;5090349;28;20394;-74
2022/07/06 13:37:08;;;;;;;3.70;0.30;;;21.40;75.30;;;;;;5090351;28;20402;-76
2022/07/06 13:39:33;;;;;;;2.57;0.20;;;21.30;75.50;;;;;;5089845;28;20401;-77
2022/07/06 13:41:59;;;;;;;2.13;0.30;;;21.30;77.10;;;;;;5088542;28;20491;-77
2022/07/06 13:44:25;;;;;;;4.88;0.50;;;21.40;77.40;;;;;;5089813;28;20395;-76
2022/07/06 13:46:51;;;;;;;2.25;0.35;;;21.40;76.40;;;;;;5090031;28;20402;-76
2022/07/06 13:49:17;;;;;;;1.37;0.17;;;21.50;75.80;;;;;;5089431;28;20903;-76
2022/07/06 13:51:42;;;;;;;2.50;0.30;;;21.50;76.30;;;;;;5090644;28;20417;-76
2022/07/06 13:54:08;;;;;;;3.38;0.38;;;21.50;75.90;;;;;;5089713;28;20409;-76
2022/07/06 13:56:36;;;;;;;3.57;0.40;;;21.40;76.00;;;;;;5089990;28;20390;-76
2022/07/06 13:59:02;;;;;;;2.38;0.32;;;21.30;75.60;;;;;;5089943;28;20394;-76
2022/07/06 14:01:27;;;;;;;2.07;0.40;;;21.10;75.70;;;;;;5059614;28;20419;-77
2022/07/06 14:03:53;;;;;;;1.83;0.27;;;21.10;76.00;;;;;;5089659;28;20949;-76